Time;durP1;ratioP1;P1;durP2;ratioP2;P2;SDS_P1;SDS_P2;PMS_P1;PMS_P2;Temp;Humidity;BMP_temperature;BMP_pressure;BME280_temperature;BME280_humidity;BME280_pressure;Samples;Min_cycle;Max_cycle;Signal;HPM_P1;HPM_P2
2023/11/20 00:03:53;;;;;;;2.28;0.60;;;;;;;10.29;87.39;151263.16;10605219;28;20050;-83
2023/11/20 00:08:56;;;;;;;1.63;0.40;;;;;;;10.32;88.88;151270.91;10586447;28;20043;-82
2023/11/20 00:13:57;;;;;;;2.15;0.50;;;;;;;10.20;91.97;151238.56;10610947;28;20036;-82
2023/11/20 00:18:59;;;;;;;2.85;0.40;;;;;;;9.96;95.28;151179.22;10608054;28;20047;-82
2023/11/20 00:24:01;;;;;;;1.85;0.50;;;;;;;9.93;95.73;151171.47;10606936;28;20043;-81
2023/11/20 00:29:08;;;;;;;2.75;0.60;;;;;;;9.79;98.53;151136.63;10609158;28;20039;-81
2023/11/20 00:34:09;;;;;;;2.53;0.43;;;;;;;9.77;99.78;151131.44;10627729;28;20047;-82
2023/11/20 00:39:11;;;;;;;2.95;0.50;;;;;;;9.66;100.00;151101.78;10611083;28;20036;-81
2023/11/20 00:44:14;;;;;;;2.65;0.50;;;;;;;9.64;100.00;151097.88;10600128;28;20053;-84
2023/11/20 00:49:16;;;;;;;3.00;1.40;;;;;;;9.64;100.00;151096.59;10601528;28;20121;-83
2023/11/20 00:54:19;;;;;;;1.95;0.38;;;;;;;9.56;100.00;151078.56;10590215;28;20040;-84
2023/11/20 00:59:22;;;;;;;1.13;0.30;;;;;;;9.46;100.00;151051.44;10596049;28;20043;-83
2023/11/20 01:04:24;;;;;;;2.38;0.40;;;;;;;9.53;100.00;151069.53;10594186;28;20043;-83
2023/11/20 01:09:26;;;;;;;2.50;0.70;;;;;;;9.48;100.00;151057.94;10595181;28;20075;-83
2023/11/20 01:14:28;;;;;;;6.35;1.02;;;;;;;9.48;100.00;151057.94;10600944;28;20027;-84
2023/11/20 01:19:30;;;;;;;2.53;0.55;;;;;;;9.51;100.00;151065.63;10611987;28;20065;-83
2023/11/20 01:24:32;;;;;;;3.00;0.70;;;;;;;9.60;100.00;151087.56;10601469;28;20036;-83
2023/11/20 01:29:34;;;;;;;0.93;0.50;;;;;;;9.59;100.00;151086.28;10574100;28;20079;-83
2023/11/20 01:34:36;;;;;;;1.23;0.47;;;;;;;9.59;100.00;151085.00;10584975;28;20057;-83
2023/11/20 01:39:38;;;;;;;1.23;0.40;;;;;;;9.65;100.00;151099.19;10583863;28;20052;-83
2023/11/20 01:44:40;;;;;;;2.45;0.60;;;;;;;9.52;100.00;151068.25;10601558;28;20441;-84
2023/11/20 01:49:42;;;;;;;1.58;0.35;;;;;;;9.53;100.00;151070.81;10563829;23;20514;-74
2023/11/20 01:54:44;;;;;;;3.40;0.73;;;;;;;9.47;100.00;151054.03;10508050;28;20074;-73
2023/11/20 01:59:46;;;;;;;3.22;0.85;;;;;;;9.48;100.00;151057.94;10525498;28;20052;-75
2023/11/20 02:04:55;;;;;;;2.75;0.70;;;;;;;9.37;100.00;151028.22;10524696;28;20074;-73
2023/11/20 02:09:56;;;;;;;4.28;1.17;;;;;;;9.31;100.00;151015.34;10542776;28;20048;-73
2023/11/20 02:14:59;;;;;;;1.80;0.47;;;;;;;9.32;100.00;151016.63;10540301;28;20059;-73
2023/11/20 02:20:06;;;;;;;7.60;0.88;;;;;;;9.33;100.00;151019.19;10540821;28;20048;-73
2023/11/20 02:25:08;;;;;;;2.53;0.45;;;;;;;9.30;100.00;151012.78;10523333;28;20093;-73
2023/11/20 02:30:11;;;;;;;1.52;0.30;;;;;;;9.30;100.00;151012.78;10523767;28;20142;-74
2023/11/20 02:35:19;;;;;;;2.17;0.50;;;;;;;9.24;100.00;150995.97;10542066;28;20107;-74
2023/11/20 02:40:21;;;;;;;2.55;0.50;;;;;;;9.22;100.00;150992.13;10523610;28;20055;-74
2023/11/20 02:45:23;;;;;;;1.02;0.60;;;;;;;9.20;100.00;150986.94;10541253;28;20050;-73
2023/11/20 02:50:25;;;;;;;2.92;0.45;;;;;;;9.18;100.00;150981.81;10542172;28;20048;-75
2023/11/20 02:55:30;;;;;;;1.67;0.30;;;;;;;9.24;100.00;150995.97;10541863;28;20040;-75
2023/11/20 03:00:31;;;;;;;3.28;0.40;;;;;;;9.24;100.00;150997.25;10523059;28;20048;-75
2023/11/20 03:05:34;;;;;;;2.10;0.40;;;;;;;9.27;100.00;151003.75;10540921;28;20040;-74
2023/11/20 03:10:36;;;;;;;1.67;0.50;;;;;;;9.32;100.00;151016.63;10523699;28;20047;-75
2023/11/20 03:15:38;;;;;;;2.53;0.60;;;;;;;9.33;100.00;151019.19;10523141;28;20068;-75
2023/11/20 03:20:40;;;;;;;2.50;0.55;;;;;;;9.37;100.00;151028.22;10523966;28;20048;-75
2023/11/20 03:25:42;;;;;;;3.33;0.50;;;;;;;9.35;100.00;151025.66;10545310;28;20118;-75
2023/11/20 03:30:44;;;;;;;1.10;0.32;;;;;;;9.46;100.00;151051.44;10533039;28;20071;-76
2023/11/20 03:35:46;;;;;;;1.58;0.68;;;;;;;9.45;100.00;151050.16;10517052;28;20052;-76
2023/11/20 03:40:48;;;;;;;1.23;0.50;;;;;;;9.49;100.00;151059.22;10552089;28;20555;-76
2023/11/20 03:45:50;;;;;;;2.05;0.52;;;;;;;9.38;100.00;151030.81;10533585;28;20063;-77
2023/11/20 03:50:52;;;;;;;1.83;0.40;;;;;;;9.56;100.00;151077.25;10532997;28;20144;-77
2023/11/20 03:55:54;;;;;;;2.05;0.70;;;;;;;9.58;100.00;151082.44;10532938;28;20048;-76
2023/11/20 04:00:55;;;;;;;2.80;0.45;;;;;;;9.43;100.00;151043.69;10550220;28;20074;-76
2023/11/20 04:05:57;;;;;;;1.38;0.40;;;;;;;9.30;100.00;151011.50;10549806;28;20403;-77
2023/11/20 04:10:59;;;;;;;1.58;0.60;;;;;;;9.33;100.00;151019.19;10550223;28;20055;-76
2023/11/20 04:16:06;;;;;;;2.28;0.60;;;;;;;9.45;100.00;151050.16;10550552;28;20040;-77
2023/11/20 04:21:08;;;;;;;2.92;0.40;;;;;;;9.50;100.00;151061.78;10534805;28;20115;-76
2023/11/20 04:26:10;;;;;;;1.83;0.30;;;;;;;9.62;100.00;151091.47;10531937;28;20502;-77
2023/11/20 04:31:12;;;;;;;0.95;0.32;;;;;;;9.71;100.00;151114.69;10549750;28;20506;-76
2023/11/20 04:36:14;;;;;;;1.70;0.50;;;;;;;9.68;100.00;151106.94;10529617;28;20090;-75
2023/11/20 04:41:16;;;;;;;1.35;0.40;;;;;;;9.72;100.00;151117.25;10547568;28;20402;-74
2023/11/20 04:46:18;;;;;;;0.90;0.30;;;;;;;9.72;100.00;151117.25;10529216;28;20040;-75
2023/11/20 04:51:22;;;;;;;0.85;0.30;;;;;;;9.76;100.00;151128.88;10547486;28;20040;-75
2023/11/20 04:56:24;;;;;;;0.73;0.30;;;;;;;9.89;100.00;151161.13;10548505;28;20051;-77
2023/11/20 05:01:26;;;;;;;0.70;0.40;;;;;;;9.91;100.00;151165.00;10529622;28;20048;-74
2023/11/20 05:06:30;;;;;;;0.98;0.30;;;;;;;9.91;100.00;151166.28;10547370;28;20131;-76
2023/11/20 05:11:31;;;;;;;1.38;0.40;;;;;;;9.82;100.00;151144.34;10547879;28;20047;-76
2023/11/20 05:16:33;;;;;;;2.15;0.60;;;;;;;9.84;100.00;151149.53;10529732;28;20418;-76
2023/11/20 05:21:35;;;;;;;3.75;0.60;;;;;;;9.81;100.00;151141.78;10529334;28;20055;-76
2023/11/20 05:26:37;;;;;;;2.92;0.55;;;;;;;9.78;100.00;151132.72;10527210;28;20101;-76
2023/11/20 05:31:39;;;;;;;2.53;0.65;;;;;;;9.74;100.00;151122.41;10546313;28;20071;-76
2023/11/20 05:36:41;;;;;;;0.43;0.28;;;;;;;9.73;100.00;151119.81;10545794;28;20067;-76
2023/11/20 05:41:43;;;;;;;1.95;0.57;;;;;;;9.88;100.00;151158.56;10545490;28;20487;-77
2023/11/20 05:46:45;;;;;;;1.25;0.40;;;;;;;9.88;100.00;151157.28;10545182;28;20059;-76
2023/11/20 05:51:48;;;;;;;0.73;0.43;;;;;;;9.92;100.00;151167.63;10544136;28;20040;-75
2023/11/20 05:56:50;;;;;;;1.38;0.30;;;;;;;9.94;100.00;151174.03;10526302;28;20044;-75
2023/11/20 06:01:52;;;;;;;2.50;0.40;;;;;;;9.97;100.00;151181.78;10526025;28;20040;-76
2023/11/20 06:06:54;;;;;;;1.30;0.22;;;;;;;10.07;100.00;151206.31;10545255;28;20048;-75
2023/11/20 06:11:56;;;;;;;2.85;0.50;;;;;;;9.95;100.00;151175.31;10545390;28;20036;-76
2023/11/20 06:16:58;;;;;;;0.57;0.25;;;;;;;10.09;100.00;151212.78;10545504;28;20127;-75
2023/11/20 06:22:00;;;;;;;1.10;0.28;;;;;;;10.10;100.00;151215.34;10544261;28;20101;-75
2023/11/20 06:27:01;;;;;;;2.05;0.52;;;;;;;10.27;100.00;151256.66;10546201;28;20044;-75
2023/11/20 06:32:06;;;;;;;0.75;0.30;;;;;;;10.22;100.00;151243.72;10526566;28;20040;-76
2023/11/20 06:37:08;;;;;;;0.65;0.20;;;;;;;10.22;100.00;151243.72;10542836;28;20090;-75
2023/11/20 06:42:10;;;;;;;0.77;0.45;;;;;;;10.25;100.00;151251.53;10542892;28;20050;-75
2023/11/20 06:47:12;;;;;;;0.40;0.40;;;;;;;10.42;100.00;151294.13;10543558;28;20044;-75
2023/11/20 06:52:16;;;;;;;0.75;0.25;;;;;;;10.39;100.00;151287.66;10542252;28;20039;-76
2023/11/20 06:57:18;;;;;;;1.05;0.28;;;;;;;10.39;100.00;151286.38;10524482;28;20139;-75
2023/11/20 07:02:21;;;;;;;0.35;0.13;;;;;;;10.39;100.00;151287.66;10542520;28;20384;-74
2023/11/20 07:07:24;;;;;;;1.15;0.22;;;;;;;10.37;100.00;151282.53;10541535;28;20044;-74
2023/11/20 07:12:26;;;;;;;0.73;0.40;;;;;;;10.27;100.00;151256.66;10541335;28;20036;-74
2023/11/20 07:17:27;;;;;;;1.15;0.30;;;;;;;10.39;100.00;151286.38;10541425;28;20036;-74
2023/11/20 07:22:29;;;;;;;0.20;0.10;;;;;;;10.39;100.00;151286.38;10542591;28;20110;-75
2023/11/20 07:27:31;;;;;;;0.85;0.30;;;;;;;10.39;100.00;151287.66;10541078;28;20052;-74
2023/11/20 07:32:35;;;;;;;0.70;0.20;;;;;;;10.49;100.00;151313.53;10541344;28;20040;-74
2023/11/20 07:37:37;;;;;;;2.88;1.10;;;;;;;10.42;100.00;151295.44;10541857;28;20437;-74
2023/11/20 07:42:39;;;;;;;0.38;0.20;;;;;;;10.42;100.00;151295.44;10523143;28;20051;-75
2023/11/20 07:47:41;;;;;;;1.05;0.20;;;;;;;10.35;100.00;151278.63;10571676;22;20074;-71
2023/11/20 07:52:43;;;;;;;1.60;0.20;;;;;;;10.38;100.00;151285.09;10584867;28;20036;-71
2023/11/20 07:57:46;;;;;;;0.93;0.20;;;;;;;10.45;100.00;151301.91;10583384;28;20053;-71
2023/11/20 08:02:48;;;;;;;0.73;0.32;;;;;;;10.42;100.00;151295.44;10583474;28;20039;-71
2023/11/20 08:07:51;;;;;;;0.45;0.20;;;;;;;10.46;100.00;151305.75;10583017;28;20047;-71
2023/11/20 08:12:53;;;;;;;0.75;0.20;;;;;;;10.38;100.00;151285.09;10586616;28;20401;-71
2023/11/20 08:17:54;;;;;;;1.13;0.30;;;;;;;10.35;100.00;151278.63;10592388;28;20043;-71
2023/11/20 08:22:56;;;;;;;1.10;0.40;;;;;;;10.42;100.00;151295.44;10590933;28;20478;-72
2023/11/20 08:27:58;;;;;;;1.15;0.38;;;;;;;10.50;100.00;151316.09;10589877;28;20127;-71
2023/11/20 08:33:00;;;;;;;0.73;0.30;;;;;;;10.64;100.00;151349.66;10590484;28;20093;-72
2023/11/20 08:38:02;;;;;;;1.67;0.30;;;;;;;10.83;99.67;151398.72;10593414;28;20040;-73
2023/11/20 08:43:05;;;;;;;1.67;0.22;;;;;;;10.77;100.00;151383.22;10572289;28;20142;-72
2023/11/20 08:48:08;;;;;;;0.32;0.10;;;;;;;10.75;100.00;151379.31;10571230;28;20502;-72
2023/11/20 08:53:10;;;;;;;0.77;0.20;;;;;;;10.89;99.28;151414.25;10589532;28;20065;-72
2023/11/20 08:58:12;;;;;;;1.20;0.50;;;;;;;11.04;97.81;151452.97;10573150;28;20093;-72
2023/11/20 09:03:14;;;;;;;3.08;0.40;;;;;;;11.16;97.42;151481.41;10588781;28;20110;-72
2023/11/20 09:08:15;;;;;;;1.17;0.30;;;;;;;11.20;95.31;151491.69;10588333;28;20128;-72
2023/11/20 09:13:18;;;;;;;1.67;0.30;;;;;;;11.20;95.38;151491.69;10588312;28;20506;-71
2023/11/20 09:18:20;;;;;;;0.28;0.17;;;;;;;11.15;94.12;151480.06;10589994;28;20065;-73
2023/11/20 09:23:22;;;;;;;1.10;0.30;;;;;;;11.12;95.16;151472.34;10589667;28;20046;-72
2023/11/20 09:28:23;;;;;;;0.30;0.20;;;;;;;11.23;94.02;151499.47;10573128;27;20094;-73
2023/11/20 09:33:25;;;;;;;0.60;0.20;;;;;;;11.28;93.45;151512.38;10630888;27;20092;-73
2023/11/20 09:38:27;;;;;;;4.88;0.20;;;;;;;11.20;95.06;151491.69;10612302;27;20159;-72
2023/11/20 09:43:29;;;;;;;5.15;2.67;;;;;;;11.14;96.10;151476.22;10632465;27;20431;-72
2023/11/20 09:48:33;;;;;;;0.55;0.52;;;;;;;11.11;98.39;151471.06;10629723;27;20474;-72
2023/11/20 09:53:37;;;;;;;1.10;0.20;;;;;;;11.05;99.07;151454.25;10630126;27;20092;-71
2023/11/20 09:58:41;;;;;;;0.90;0.30;;;;;;;10.94;100.00;151427.16;10631181;27;20039;-71
2023/11/20 10:03:44;;;;;;;1.10;0.22;;;;;;;10.86;100.00;151406.47;10631131;27;20378;-72
2023/11/20 10:08:48;;;;;;;2.17;1.00;;;;;;;10.82;100.00;151397.44;10628916;27;20070;-72
2023/11/20 10:13:51;;;;;;;0.85;0.45;;;;;;;10.99;100.00;151440.06;10628650;27;20043;-72
2023/11/20 10:18:53;;;;;;;1.55;0.40;;;;;;;11.03;100.00;151449.09;10629273;27;20043;-72
2023/11/20 10:23:55;;;;;;;1.90;0.52;;;;;;;10.81;100.00;151394.84;10629510;27;20032;-72
2023/11/20 10:28:57;;;;;;;2.40;0.80;;;;;;;10.59;100.00;151338.03;10587355;27;20047;-72
2023/11/20 10:34:06;;;;;;;1.00;0.20;;;;;;;10.41;100.00;151291.56;10566973;28;20152;-71
2023/11/20 10:39:12;;;;;;;1.10;0.40;;;;;;;10.35;100.00;151278.63;10585127;28;20036;-72
2023/11/20 10:44:14;;;;;;;0.43;0.20;;;;;;;10.50;100.00;151314.81;10586979;28;20035;-72
2023/11/20 10:49:20;;;;;;;0.47;0.30;;;;;;;10.66;100.00;151356.09;10587748;28;20039;-72
2023/11/20 10:54:34;;;;;;;1.07;0.80;;;;;;;10.52;100.00;151321.22;10586387;28;20439;-71
2023/11/20 10:59:37;;;;;;;0.32;0.10;;;;;;;10.48;100.00;151309.63;10549613;28;20077;-72
2023/11/20 11:04:43;;;;;;;1.80;0.30;;;;;;;10.47;100.00;151308.31;10584175;28;20084;-72
2023/11/20 11:09:46;;;;;;;2.47;0.90;;;;;;;10.64;100.00;151349.66;10568621;28;20043;-71
2023/11/20 11:14:48;;;;;;;0.32;0.30;;;;;;;10.85;100.00;151405.19;10583887;28;20048;-71
2023/11/20 11:19:59;;;;;;;1.08;0.35;;;;;;;11.11;100.00;151469.72;10583913;28;20469;-72
2023/11/20 11:25:09;;;;;;;1.20;0.80;;;;;;;11.13;100.00;151473.63;10583902;28;20038;-72
2023/11/20 11:30:16;;;;;;;1.17;0.40;;;;;;;11.27;100.00;151509.81;10568287;28;20070;-72
2023/11/20 11:35:30;;;;;;;0.68;0.30;;;;;;;11.18;100.00;151487.84;10586180;28;20425;-71
2023/11/20 11:41:00;;;;;;;0.40;0.40;;;;;;;11.27;96.43;151511.09;10585624;28;20040;-72
2023/11/20 11:46:03;;;;;;;0.40;0.30;;;;;;;11.07;98.20;151459.44;10563554;28;20059;-72
2023/11/20 11:51:21;;;;;;;0.30;0.30;;;;;;;11.07;99.12;151460.72;10593330;28;20044;-72
2023/11/20 11:56:26;;;;;;;0.65;0.15;;;;;;;11.11;98.91;151469.72;10593885;28;20135;-71
2023/11/20 12:01:27;;;;;;;0.30;0.10;;;;;;;11.28;98.63;151512.38;10592138;28;20082;-72
2023/11/20 12:06:29;;;;;;;0.82;0.30;;;;;;;11.25;100.00;151505.94;10591492;28;20123;-72
2023/11/20 12:11:47;;;;;;;0.47;0.10;;;;;;;11.35;97.80;151530.47;10591118;28;20051;-72
2023/11/20 12:16:50;;;;;;;0.70;0.17;;;;;;;11.40;99.33;151542.09;10596450;27;20036;-72
2023/11/20 12:21:53;;;;;;;0.88;0.20;;;;;;;11.39;98.57;151539.53;10615963;27;20043;-73
2023/11/20 12:26:56;;;;;;;0.30;0.20;;;;;;;11.34;98.96;151529.19;10602312;27;20078;-72
2023/11/20 12:31:59;;;;;;;0.90;0.10;;;;;;;11.33;100.00;151526.63;10573913;27;20476;-73
2023/11/20 12:37:04;;;;;;;0.20;0.10;;;;;;;11.32;100.00;151524.00;10635219;27;20051;-72
2023/11/20 12:42:08;;;;;;;0.17;0.17;;;;;;;11.16;100.00;151481.41;10614489;27;20051;-72
2023/11/20 12:47:09;;;;;;;1.15;0.40;;;;;;;11.22;100.00;151498.16;10614190;27;20399;-72
2023/11/20 12:52:11;;;;;;;0.75;0.10;;;;;;;11.17;100.00;151485.25;10602802;27;20048;-71
2023/11/20 12:57:13;;;;;;;0.10;0.10;;;;;;;11.25;99.87;151505.94;10589753;28;20422;-71
2023/11/20 13:02:17;;;;;;;0.95;0.28;;;;;;;11.23;99.46;151500.75;10589484;28;20043;-71
2023/11/20 13:07:22;;;;;;;0.43;0.20;;;;;;;11.29;96.90;151515.00;10572283;28;20048;-72
2023/11/20 13:12:24;;;;;;;0.47;0.20;;;;;;;11.47;94.14;151560.22;10589668;28;20043;-72
2023/11/20 13:17:29;;;;;;;0.88;0.20;;;;;;;11.56;90.29;151584.75;10569911;28;20054;-71
2023/11/20 13:22:43;;;;;;;3.95;0.28;;;;;;;11.68;88.67;151613.16;10572669;28;20398;-72
2023/11/20 13:27:45;;;;;;;1.08;0.30;;;;;;;11.54;91.15;151579.56;10588669;28;20058;-72
2023/11/20 13:32:47;;;;;;;1.15;0.20;;;;;;;11.55;88.71;151582.19;10588146;28;20440;-71
2023/11/20 13:37:55;;;;;;;1.05;0.20;;;;;;;11.41;88.63;151545.97;10588705;28;20085;-71
2023/11/20 13:42:57;;;;;;;0.65;0.20;;;;;;;11.51;88.76;151571.84;10589894;28;20040;-72
2023/11/20 13:47:59;;;;;;;2.63;0.28;;;;;;;11.57;86.21;151587.31;10570899;22;20051;-83
2023/11/20 13:53:01;;;;;;;0.28;0.20;;;;;;;11.50;86.76;151569.22;10559204;28;20119;-81
2023/11/20 13:58:03;;;;;;;0.30;0.20;;;;;;;11.08;90.77;151462.00;10579382;27;20030;-83
2023/11/20 14:03:05;;;;;;;0.55;0.32;;;;;;;11.33;86.92;151525.28;10630721;28;20494;-81
2023/11/20 14:08:07;;;;;;;0.60;0.30;;;;;;;11.06;90.63;151456.81;10628778;27;20039;-83
2023/11/20 14:13:09;;;;;;;1.45;0.30;;;;;;;10.83;92.02;151400.00;10614137;28;20091;-84
2023/11/20 14:18:11;;;;;;;0.95;0.40;;;;;;;10.83;93.50;151400.00;10632654;28;20053;-83
2023/11/20 14:23:13;;;;;;;1.98;0.50;;;;;;;10.69;95.04;151362.56;10608403;28;20051;-83
2023/11/20 14:28:15;;;;;;;0.75;0.50;;;;;;;10.65;96.04;151353.53;10578569;28;20138;-85
2023/11/20 14:33:16;;;;;;;1.23;0.40;;;;;;;10.68;95.34;151360.00;10596722;28;20055;-83
2023/11/20 14:38:18;;;;;;;1.52;1.00;;;;;;;10.60;95.75;151341.91;10579205;28;20502;-83
2023/11/20 14:43:20;;;;;;;2.58;0.95;;;;;;;10.53;97.34;151323.81;10579306;28;20472;-83
2023/11/20 14:48:22;;;;;;;1.65;0.50;;;;;;;10.51;97.75;151318.66;10596136;28;20147;-83
2023/11/20 14:53:25;;;;;;;1.10;0.65;;;;;;;10.53;98.22;151322.53;10595792;28;20130;-85
2023/11/20 14:58:27;;;;;;;1.25;0.57;;;;;;;10.61;96.73;151343.19;10599472;28;20067;-84
2023/11/20 15:03:29;;;;;;;1.52;0.75;;;;;;;10.41;100.00;151292.84;10595371;28;20044;-82
2023/11/20 15:08:31;;;;;;;1.05;0.63;;;;;;;10.36;100.00;151279.94;10594536;28;20406;-83
2023/11/20 15:13:32;;;;;;;0.40;0.30;;;;;;;10.28;100.00;151259.28;10560525;28;20048;-82
2023/11/20 15:18:36;;;;;;;1.60;0.63;;;;;;;10.29;100.00;151263.16;10578005;28;20119;-82
2023/11/20 15:23:38;;;;;;;2.15;0.90;;;;;;;10.29;99.19;151261.84;10607880;28;20036;-83
2023/11/20 15:28:40;;;;;;;2.88;1.40;;;;;;;10.35;96.25;151278.63;10591609;28;20123;-83
2023/11/20 15:33:43;;;;;;;0.70;0.57;;;;;;;10.43;93.61;151296.72;10608952;28;20031;-84
2023/11/20 15:38:45;;;;;;;1.13;0.70;;;;;;;10.42;93.71;151294.13;10589963;28;20440;-85
2023/11/20 15:43:46;;;;;;;2.05;1.10;;;;;;;10.17;96.43;151230.81;10575078;28;20040;-84
2023/11/20 15:48:48;;;;;;;1.65;0.57;;;;;;;10.14;92.04;151224.41;10582999;28;20040;-84
2023/11/20 15:53:50;;;;;;;4.22;0.68;;;;;;;10.26;88.02;151254.09;10616521;28;20044;-84
2023/11/20 15:58:51;;;;;;;3.20;1.90;;;;;;;10.41;85.87;151292.84;10593470;28;20078;-84
2023/11/20 16:03:53;;;;;;;11.50;9.52;;;;;;;10.45;85.81;151301.91;10637418;28;20063;-81
2023/11/20 16:08:55;;;;;;;1.85;1.00;;;;;;;10.12;88.83;151219.22;10623332;28;20047;-83
2023/11/20 16:13:57;;;;;;;1.48;0.90;;;;;;;10.02;90.41;151193.41;10622900;28;20059;-85
2023/11/20 16:18:59;;;;;;;1.65;0.70;;;;;;;9.86;93.04;151153.38;10598184;28;20069;-83
2023/11/20 16:24:01;;;;;;;1.50;0.60;;;;;;;9.65;96.47;151099.19;10593212;28;20398;-83
2023/11/20 16:29:03;;;;;;;1.65;0.80;;;;;;;9.55;97.64;151075.94;10619171;28;20087;-85
2023/11/20 16:34:05;;;;;;;2.88;1.00;;;;;;;9.62;97.81;151092.75;10593340;28;20461;-84
2023/11/20 16:39:07;;;;;;;1.80;0.77;;;;;;;9.71;98.72;151114.69;10602555;28;20071;-83
2023/11/20 16:44:08;;;;;;;2.42;0.98;;;;;;;9.76;99.85;151127.59;10582506;28;20040;-84
2023/11/20 16:49:10;;;;;;;1.80;1.05;;;;;;;9.57;100.00;151081.13;10599510;28;20472;-84
2023/11/20 16:54:12;;;;;;;3.35;1.45;;;;;;;9.52;100.00;151068.25;10582882;28;20036;-84
2023/11/20 16:59:14;;;;;;;2.97;1.45;;;;;;;9.80;95.13;151139.19;10630274;27;20032;-82
2023/11/20 17:04:16;;;;;;;2.60;1.27;;;;;;;9.76;95.70;151127.59;10620587;27;20059;-82
2023/11/20 17:09:19;;;;;;;1.10;0.60;;;;;;;9.80;91.17;151139.19;10636900;27;20043;-84
2023/11/20 17:14:20;;;;;;;2.45;0.68;;;;;;;9.84;91.48;151148.25;10636253;28;20039;-83
2023/11/20 17:19:23;;;;;;;1.75;0.73;;;;;;;9.85;89.02;151152.09;10609650;28;20069;-85
2023/11/20 17:24:25;;;;;;;1.05;0.80;;;;;;;9.69;93.34;151109.50;10575627;28;20075;-85
2023/11/20 17:29:26;;;;;;;2.53;1.23;;;;;;;9.73;92.88;151121.13;10614838;28;20483;-83
2023/11/20 17:34:28;;;;;;;3.38;1.05;;;;;;;9.69;93.81;151110.78;10597371;28;20040;-84
2023/11/20 17:39:30;;;;;;;2.78;1.10;;;;;;;9.96;90.32;151177.88;10620385;27;20103;-82
2023/11/20 17:44:32;;;;;;;2.55;0.82;;;;;;;9.85;91.43;151150.81;10617031;28;20061;-83
2023/11/20 17:49:34;;;;;;;2.53;1.10;;;;;;;9.64;93.93;151097.88;10613397;28;20125;-83
2023/11/20 17:54:36;;;;;;;2.20;1.63;;;;;;;9.45;96.24;151048.88;10606282;28;20067;-81
2023/11/20 17:59:38;;;;;;;1.77;1.23;;;;;;;9.40;95.38;151036.00;10627878;28;20047;-83
2023/11/20 18:04:41;;;;;;;3.13;1.30;;;;;;;9.48;93.00;151056.63;10608888;28;20044;-83
2023/11/20 18:09:46;;;;;;;3.08;1.63;;;;;;;9.29;95.69;151010.16;10587761;28;20534;-84
2023/11/20 18:14:47;;;;;;;3.10;1.10;;;;;;;9.51;91.42;151064.34;10569692;28;20534;-85
2023/11/20 18:19:49;;;;;;;1.40;0.80;;;;;;;9.41;93.08;151039.84;10603885;28;20043;-86
2023/11/20 18:24:51;;;;;;;1.30;1.10;;;;;;;9.31;92.26;151015.34;10587002;28;20452;-84
2023/11/20 18:29:53;;;;;;;1.40;0.93;;;;;;;9.12;94.51;150966.34;10607921;28;20051;-84
2023/11/20 18:34:56;;;;;;;2.88;1.17;;;;;;;9.06;95.61;150950.84;10584608;28;20491;-84
2023/11/20 18:39:59;;;;;;;3.08;1.08;;;;;;;8.98;97.14;150931.47;10585081;28;20050;-85
2023/11/20 18:45:01;;;;;;;7.25;1.80;;;;;;;9.04;97.18;150947.00;10604989;28;20051;-84
2023/11/20 18:50:03;;;;;;;1.67;0.75;;;;;;;9.04;97.00;150945.72;10607638;28;20126;-84
2023/11/20 18:55:06;;;;;;;1.20;0.85;;;;;;;9.15;95.90;150974.06;10585466;28;20066;-84
2023/11/20 19:00:09;;;;;;;1.85;0.98;;;;;;;9.26;92.89;151002.44;10585664;28;20107;-85
2023/11/20 19:05:13;;;;;;;1.77;0.88;;;;;;;9.27;92.57;151003.75;10584606;28;20487;-85
2023/11/20 19:10:15;;;;;;;1.55;0.82;;;;;;;9.34;91.62;151023.09;10604964;28;20047;-84
2023/11/20 19:15:19;;;;;;;1.25;0.80;;;;;;;9.27;90.82;151003.75;10584839;28;20112;-82
2023/11/20 19:20:20;;;;;;;1.70;0.80;;;;;;;9.22;91.72;150990.84;10585362;28;20051;-85
2023/11/20 19:25:25;;;;;;;2.40;0.77;;;;;;;8.95;95.14;150923.78;10591836;28;20035;-85
2023/11/20 19:30:28;;;;;;;2.08;1.17;;;;;;;8.76;97.14;150874.75;10591199;28;20115;-84
2023/11/20 19:35:29;;;;;;;0.95;0.70;;;;;;;8.76;96.82;150876.03;10589164;28;20051;-83
2023/11/20 19:40:32;;;;;;;1.65;0.63;;;;;;;8.93;95.47;150918.59;10590395;28;20051;-84
2023/11/20 19:45:34;;;;;;;1.42;0.75;;;;;;;9.03;94.00;150944.44;10621015;28;20044;-83
2023/11/20 19:50:36;;;;;;;0.98;0.70;;;;;;;8.87;95.51;150903.13;10636305;22;20043;-83
2023/11/20 19:55:38;;;;;;;0.63;0.47;;;;;;;9.00;94.17;150935.38;10598998;28;20522;-83
2023/11/20 20:00:41;;;;;;;0.73;0.45;;;;;;;8.99;94.28;150934.09;10597320;28;20069;-84
2023/11/20 20:05:52;;;;;;;1.00;0.40;;;;;;;8.96;94.53;150925.06;10623733;27;20032;-83
2023/11/20 20:11:07;;;;;;;2.22;0.55;;;;;;;8.83;96.80;150892.81;10620090;28;20039;-85
2023/11/20 20:16:09;;;;;;;1.60;0.50;;;;;;;8.72;98.09;150864.44;10583581;28;20055;-85
2023/11/20 20:21:11;;;;;;;3.05;0.60;;;;;;;8.82;96.91;150890.25;10609132;28;20043;-85
2023/11/20 20:26:16;;;;;;;0.30;0.30;;;;;;;8.53;99.32;150818.03;10605003;28;20065;-84
2023/11/20 20:31:18;;;;;;;1.48;0.60;;;;;;;8.47;100.00;150802.56;10602252;28;20079;-85
2023/11/20 20:36:21;;;;;;;0.70;0.50;;;;;;;8.54;100.00;150820.66;10584388;27;20580;-84
2023/11/20 20:41:22;;;;;;;1.67;0.55;;;;;;;8.58;100.00;150830.91;10612451;28;20074;-83
2023/11/20 20:46:24;;;;;;;5.65;0.60;;;;;;;8.76;98.63;150876.03;10611698;28;20040;-84
2023/11/20 20:51:26;;;;;;;0.82;0.40;;;;;;;8.78;98.29;150879.94;10592613;28;20054;-85
2023/11/20 20:56:28;;;;;;;0.43;0.40;;;;;;;8.86;98.10;150900.56;10594406;28;20043;-83
2023/11/20 21:01:30;;;;;;;0.77;0.40;;;;;;;8.81;97.99;150888.97;10611128;28;20040;-82
2023/11/20 21:06:31;;;;;;;1.00;0.93;;;;;;;8.73;98.66;150868.34;10616144;28;20027;-84
2023/11/20 21:11:39;;;;;;;1.27;0.30;;;;;;;8.79;97.51;150882.50;10597973;28;20048;-84
2023/11/20 21:16:49;;;;;;;1.25;0.40;;;;;;;8.67;98.40;150851.53;10601643;28;20054;-84
2023/11/20 21:21:52;;;;;;;0.82;0.30;;;;;;;8.69;97.73;150856.72;10596114;28;20044;-85
2023/11/20 21:26:54;;;;;;;1.65;0.50;;;;;;;8.44;99.92;150794.81;10614592;28;20084;-83
2023/11/20 21:31:57;;;;;;;0.40;0.40;;;;;;;8.66;98.21;150850.25;10598899;27;20069;-83
2023/11/20 21:37:00;;;;;;;1.23;0.40;;;;;;;8.59;98.42;150832.25;10612738;28;20054;-83
2023/11/20 21:42:06;;;;;;;0.43;0.30;;;;;;;8.54;99.40;150820.66;10626252;28;20051;-86
2023/11/20 21:47:08;;;;;;;0.87;0.40;;;;;;;8.56;99.82;150824.50;10591767;28;20039;-80
2023/11/20 21:52:10;;;;;;;0.52;0.40;;;;;;;8.45;100.00;150796.09;10574681;27;20346;-81
2023/11/20 21:57:12;;;;;;;0.43;0.40;;;;;;;8.38;100.00;150778.09;10589641;28;20455;-79
2023/11/20 22:02:14;;;;;;;0.32;0.32;;;;;;;8.39;100.00;150780.66;10607984;28;20041;-81
2023/11/20 22:07:19;;;;;;;0.88;0.40;;;;;;;8.34;100.00;150769.00;10601652;28;20048;-81
2023/11/20 22:12:21;;;;;;;2.53;0.30;;;;;;;8.20;100.00;150734.22;10586158;28;20051;-80
2023/11/20 22:17:23;;;;;;;1.00;0.45;;;;;;;8.44;100.00;150793.53;10603877;28;20036;-81
2023/11/20 22:22:25;;;;;;;0.30;0.30;;;;;;;8.26;100.00;150749.66;10585979;27;20028;-81
2023/11/20 22:27:27;;;;;;;0.50;0.30;;;;;;;8.22;100.00;150739.34;10634450;27;20491;-81
2023/11/20 22:32:29;;;;;;;0.52;0.30;;;;;;;8.34;100.00;150769.00;10634525;27;20035;-83
2023/11/20 22:37:34;;;;;;;0.60;0.40;;;;;;;8.30;100.00;150758.69;10617088;27;20034;-80
2023/11/20 22:47:57;;;;;;;0.50;0.35;;;;;;;8.26;100.00;150748.38;10442958;28;20556;-71
2023/11/20 22:52:58;;;;;;;0.40;0.30;;;;;;;8.16;100.00;150722.63;10462758;28;20049;-72
2023/11/20 22:58:01;;;;;;;1.13;0.50;;;;;;;8.17;100.00;150726.47;10460801;28;20091;-71
2023/11/20 23:03:08;;;;;;;0.65;0.50;;;;;;;8.24;100.00;150744.53;10444055;28;20049;-70
2023/11/20 23:08:10;;;;;;;;;;;;;;;8.15;100.00;150721.34;10460841;28;20033;-72
2023/11/20 23:13:14;;;;;;;0.98;0.40;;;;;;;8.21;100.00;150735.50;10442531;28;19921;-70
2023/11/20 23:18:15;;;;;;;0.52;0.50;;;;;;;8.30;100.00;150758.69;10461679;28;20037;-72